Time;durP1;ratioP1;P1;durP2;ratioP2;P2;SDS_P1;SDS_P2;PMS_P1;PMS_P2;Temp;Humidity;BMP_temperature;BMP_pressure;BME280_temperature;BME280_humidity;BME280_pressure;Samples;Min_cycle;Max_cycle;Signal;HPM_P1;HPM_P2
2022/07/20 00:00:21;;;;;;;8.50;4.00;;;;;;;15.12;83.07;99920.79;109315;1273;137671;-61
2022/07/20 00:02:48;;;;;;;6.00;3.80;;;;;;;15.10;83.12;99922.71;109258;1274;22458;-61
2022/07/20 00:05:15;;;;;;;7.70;4.50;;;;;;;15.06;83.07;99924.80;109167;1273;137668;-61
2022/07/20 00:07:42;;;;;;;4.90;4.00;;;;;;;15.03;83.20;99923.75;109374;1273;22453;-61
2022/07/20 00:12:54;;;;;;;5.40;4.10;;;;;;;14.98;83.37;99921.42;109408;1273;138747;-60
2022/07/20 00:15:21;;;;;;;7.20;5.20;;;;;;;14.97;83.63;99922.08;109439;1273;22522;-60
2022/07/20 00:17:48;;;;;;;7.40;4.90;;;;;;;14.98;83.99;99920.88;109261;1273;138482;-61
2022/07/20 00:20:14;;;;;;;6.90;5.20;;;;;;;14.98;84.36;99918.40;109464;1273;22485;-61
2022/07/20 00:22:41;;;;;;;8.50;4.90;;;;;;;14.98;84.47;99920.48;109461;1273;22450;-60
2022/07/20 00:25:08;;;;;;;6.10;4.70;;;;;;;14.96;84.61;99914.90;109322;1273;137883;-59
2022/07/20 00:27:35;;;;;;;5.60;5.00;;;;;;;14.97;84.73;99917.63;109416;1273;22445;-60
2022/07/20 00:30:02;;;;;;;6.80;5.00;;;;;;;14.95;84.65;99915.94;109289;1273;139223;-60
2022/07/20 00:32:29;;;;;;;7.40;5.10;;;;;;;14.92;84.57;99913.85;109401;1273;22680;-60
2022/07/20 00:34:56;;;;;;;6.60;5.00;;;;;;;14.91;84.66;99911.38;109379;1274;22480;-59
2022/07/20 00:37:23;;;;;;;7.80;5.30;;;;;;;14.91;84.77;99910.11;109274;1274;139863;-60
2022/07/20 00:39:50;;;;;;;6.00;5.20;;;;;;;14.91;85.04;99905.45;108213;1273;24107;-59
2022/07/20 00:42:16;;;;;;;6.60;5.20;;;;;;;14.91;85.28;99905.68;104952;1275;138293;-60
2022/07/20 00:44:43;;;;;;;5.50;5.00;;;;;;;14.94;85.49;99905.02;105093;1274;22775;-59
2022/07/20 00:47:10;;;;;;;13.40;5.50;;;;;;;14.95;85.78;99902.55;104836;1274;138281;-60
2022/07/20 00:49:37;;;;;;;7.50;5.10;;;;;;;14.96;86.07;99897.49;105120;1274;25284;-59
2022/07/20 00:52:04;;;;;;;5.20;4.30;;;;;;;14.99;86.29;99897.61;105051;1275;25130;-60
2022/07/20 00:54:31;;;;;;;7.60;5.50;;;;;;;15.00;86.36;99899.30;109170;1274;138918;-58
2022/07/20 00:56:58;;;;;;;5.70;5.00;;;;;;;15.00;86.43;99899.25;109249;1276;23477;-59
2022/07/20 00:59:24;;;;;;;6.10;5.20;;;;;;;15.00;86.31;99904.02;109275;1273;139802;-59
2022/07/20 01:01:51;;;;;;;6.10;4.90;;;;;;;14.99;86.09;99902.05;109334;1274;22454;-60
2022/07/20 01:04:18;;;;;;;8.30;4.60;;;;;;;14.98;86.03;99903.80;109324;1273;22433;-60
2022/07/20 01:06:45;;;;;;;11.50;5.20;;;;;;;14.97;85.93;99900.73;109267;1274;140554;-60
2022/07/20 01:09:12;;;;;;;5.60;4.90;;;;;;;14.95;85.63;99903.64;109345;1273;22432;-60
2022/07/20 01:11:39;;;;;;;8.00;4.20;;;;;;;14.92;85.31;99900.58;109259;1274;139045;-60
2022/07/20 01:14:06;;;;;;;4.50;3.40;;;;;;;14.88;85.02;99900.52;109396;1274;23237;-62
2022/07/20 01:16:34;;;;;;;9.20;4.80;;;;;;;14.85;84.80;99896.86;109385;1274;22947;-62
2022/07/20 01:19:00;;;;;;;5.80;4.20;;;;;;;14.83;84.75;99894.66;109249;1274;138730;-61
2022/07/20 01:21:27;;;;;;;6.50;4.00;;;;;;;14.79;84.34;99896.20;109362;1273;23606;-61
2022/07/20 01:23:54;;;;;;;9.20;4.50;;;;;;;14.77;84.27;99896.15;109291;1273;138062;-61
2022/07/20 01:26:21;;;;;;;8.80;4.10;;;;;;;14.74;84.11;99895.38;109351;1274;22567;-61
2022/07/20 01:28:48;;;;;;;4.80;4.20;;;;;;;14.70;83.92;99899.17;109304;1274;23524;-61
2022/07/20 01:31:15;;;;;;;5.20;3.80;;;;;;;14.67;83.86;99899.95;109287;1274;138199;-61
2022/07/20 01:33:42;;;;;;;5.40;4.20;;;;;;;14.64;83.64;99900.55;109369;1274;22262;-59
2022/07/20 01:36:09;;;;;;;5.60;4.20;;;;;;;14.60;83.50;99901.09;109256;1274;139073;-59
2022/07/20 01:38:36;;;;;;;4.30;3.90;;;;;;;14.55;83.47;99906.83;109417;1273;22467;-59
2022/07/20 01:41:03;;;;;;;5.10;3.80;;;;;;;14.53;83.58;99905.23;109411;1274;22557;-60
2022/07/20 01:43:29;;;;;;;4.30;3.00;;;;;;;14.50;83.46;99904.46;109157;1274;138024;-61
2022/07/20 01:45:56;;;;;;;5.10;4.50;;;;;;;14.48;83.56;99907.95;109389;1273;22271;-61
2022/07/20 01:48:23;;;;;;;6.60;5.20;;;;;;;14.45;83.58;99906.80;109280;1273;140799;-61
2022/07/20 01:50:50;;;;;;;7.10;5.50;;;;;;;14.44;83.72;99908.99;109278;1274;22474;-61
2022/07/20 01:53:17;;;;;;;6.50;5.10;;;;;;;14.43;83.99;99903.13;109276;1274;139668;-61
2022/07/20 01:55:43;;;;;;;6.10;4.30;;;;;;;14.43;84.05;99901.64;109374;1273;22646;-61
2022/07/20 01:58:10;;;;;;;8.00;4.60;;;;;;;14.39;84.08;99904.71;109389;1273;23610;-61
2022/07/20 02:00:37;;;;;;;7.30;5.70;;;;;;;14.35;83.93;99907.98;109231;1274;138928;-61
2022/07/20 02:03:04;;;;;;;6.00;5.10;;;;;;;14.34;84.08;99908.41;109416;1273;22618;-60
2022/07/20 02:05:31;;;;;;;5.60;4.60;;;;;;;14.34;84.33;99910.06;109286;1273;138630;-61
2022/07/20 02:07:58;;;;;;;5.70;4.80;;;;;;;14.34;84.35;99908.14;109438;1273;22462;-61
2022/07/20 02:10:25;;;;;;;5.90;4.10;;;;;;;14.31;84.16;99904.73;109410;1274;22518;-61
2022/07/20 02:12:51;;;;;;;5.10;4.20;;;;;;;14.29;84.28;99903.97;109236;1274;140619;-61
2022/07/20 02:18:08;;;;;;;6.70;4.50;;;;;;;14.27;83.97;99906.89;109195;1274;138864;-62
2022/07/20 02:20:35;;;;;;;7.20;5.20;;;;;;;14.27;84.06;99905.02;109406;1273;22617;-61
2022/07/20 02:23:03;;;;;;;8.60;4.20;;;;;;;14.27;84.25;99904.70;109400;1273;22470;-61
2022/07/20 02:25:29;;;;;;;5.10;4.60;;;;;;;14.28;84.27;99904.36;109236;1274;138666;-61
2022/07/20 02:28:05;;;;;;;4.80;4.10;;;;;;;14.28;84.34;99904.85;109475;1273;23181;-60
2022/07/20 02:30:32;;;;;;;5.30;4.50;;;;;;;14.29;84.61;99912.40;109346;1273;139782;-60
2022/07/20 02:33:01;;;;;;;9.70;5.20;;;;;;;14.30;84.78;99907.25;109398;1274;22437;-60
2022/07/20 02:35:28;;;;;;;6.70;4.80;;;;;;;14.33;85.26;99910.60;109331;1273;138928;-60
2022/07/20 02:37:55;;;;;;;6.70;5.20;;;;;;;14.36;85.43;99916.31;109420;1273;22437;-60
2022/07/20 02:40:21;;;;;;;5.30;4.40;;;;;;;14.38;85.63;99915.50;109454;1273;22452;-60
2022/07/20 02:42:48;;;;;;;7.50;5.50;;;;;;;14.41;85.87;99911.27;109303;1273;138498;-60
2022/07/20 02:45:15;;;;;;;8.80;5.40;;;;;;;14.43;85.67;99915.20;109340;1273;22616;-60
2022/07/20 02:47:45;;;;;;;7.80;6.10;;;;;;;14.44;85.72;99918.52;109324;1273;139210;-60
2022/07/20 02:50:12;;;;;;;9.90;6.00;;;;;;;14.45;85.69;99916.34;109425;1273;22488;-60
2022/07/20 02:52:40;;;;;;;10.20;6.10;;;;;;;14.46;85.97;99915.58;109486;1273;22412;-60
2022/07/20 02:55:07;;;;;;;12.30;8.10;;;;;;;14.48;85.96;99916.17;109282;1273;139393;-60
2022/07/20 02:57:33;;;;;;;10.40;8.40;;;;;;;14.49;86.25;99916.41;109423;1273;22659;-60
2022/07/20 03:00:01;;;;;;;14.60;9.00;;;;;;;14.53;86.39;99914.44;109232;1273;138344;-60
2022/07/20 03:02:27;;;;;;;11.40;9.10;;;;;;;14.56;86.45;99916.48;109382;1273;22452;-61
2022/07/20 03:04:54;;;;;;;12.10;9.20;;;;;;;14.58;86.51;99917.17;109368;1273;22507;-61
2022/07/20 03:07:21;;;;;;;10.60;9.10;;;;;;;14.60;86.52;99917.55;109277;1274;140164;-61
2022/07/20 03:09:48;;;;;;;12.60;8.80;;;;;;;14.61;86.65;99914.53;109345;1273;23311;-61
2022/07/20 03:12:14;;;;;;;12.70;8.70;;;;;;;14.65;86.89;99913.22;109158;1273;138360;-61
2022/07/20 03:14:41;;;;;;;12.40;8.80;;;;;;;14.67;86.98;99905.27;109358;1273;22354;-61
2022/07/20 03:17:08;;;;;;;22.40;11.60;;;;;;;14.70;87.05;99906.27;109101;1274;138918;-61
2022/07/20 03:19:35;;;;;;;71.00;29.80;;;;;;;14.71;87.04;99912.45;109414;1274;23473;-61
2022/07/20 03:22:02;;;;;;;68.60;31.90;;;;;;;14.74;87.24;99908.27;109435;1272;22549;-61
2022/07/20 03:24:28;;;;;;;56.00;27.40;;;;;;;14.77;87.34;99912.39;109283;1273;139583;-61
2022/07/20 03:26:55;;;;;;;31.20;15.90;;;;;;;14.80;87.39;99916.34;109466;1273;22447;-60
2022/07/20 03:29:22;;;;;;;16.90;10.30;;;;;;;14.84;87.54;99916.71;109313;1273;139782;-61
2022/07/20 03:31:49;;;;;;;12.40;8.30;;;;;;;14.89;87.77;99918.02;109412;1273;22269;-61
2022/07/20 03:34:15;;;;;;;9.60;6.50;;;;;;;14.93;88.00;99922.52;109417;1274;23415;-60
2022/07/20 03:36:42;;;;;;;8.90;6.00;;;;;;;14.98;88.24;99921.87;109299;1273;138458;-61
2022/07/20 03:39:09;;;;;;;9.90;6.10;;;;;;;15.03;88.42;99914.48;109350;1273;22656;-61
2022/07/20 03:41:36;;;;;;;9.80;6.00;;;;;;;15.08;88.70;99915.02;109176;1274;140247;-60
2022/07/20 03:44:03;;;;;;;7.60;5.70;;;;;;;15.14;89.00;99919.95;109448;1273;22422;-61
2022/07/20 03:46:29;;;;;;;7.10;5.50;;;;;;;15.20;89.21;99919.71;109368;1274;22459;-62
2022/07/20 03:48:56;;;;;;;7.30;5.60;;;;;;;15.27;89.47;99912.90;109281;1273;139077;-61
2022/07/20 03:51:23;;;;;;;8.40;5.90;;;;;;;15.33;89.75;99911.10;109374;1274;22481;-61
2022/07/20 03:53:50;;;;;;;10.00;5.30;;;;;;;15.41;89.96;99913.41;109330;1273;139229;-60
2022/07/20 07:24:53;;;;;;;4.80;3.40;;;;;;;21.99;65.40;99708.15;101445;1312;557868;-67
2022/07/20 07:27:20;;;;;;;9.20;4.00;;;;;;;22.18;64.82;99699.26;103329;1291;349778;-58
2022/07/20 07:29:47;;;;;;;6.00;4.00;;;;;;;22.25;64.35;99693.66;103512;1289;139319;-58
2022/07/20 07:32:14;;;;;;;6.30;4.50;;;;;;;22.30;64.10;99690.11;103636;1291;22894;-59
2022/07/20 07:34:41;;;;;;;4.70;4.10;;;;;;;22.37;63.99;99686.10;107988;1289;22461;-59
2022/07/20 07:37:08;;;;;;;5.20;4.10;;;;;;;22.39;63.57;99680.89;108935;1277;138051;-59
2022/07/20 07:39:35;;;;;;;4.80;4.30;;;;;;;22.44;63.39;99678.45;109038;1279;23116;-59
2022/07/20 07:42:01;;;;;;;7.60;4.20;;;;;;;22.45;62.78;99678.00;108988;1277;137508;-62
2022/07/20 07:44:36;;;;;;;5.90;3.80;;;;;;;22.46;62.53;99675.80;109010;1278;22462;-59
2022/07/20 07:47:04;;;;;;;4.20;3.80;;;;;;;22.46;62.59;99677.70;108989;1279;22631;-57
2022/07/20 07:49:31;;;;;;;5.70;3.80;;;;;;;22.48;62.70;99673.98;108870;1279;137798;-57
2022/07/20 07:51:57;;;;;;;7.50;4.30;;;;;;;22.50;62.40;99665.89;109086;1276;22458;-57
2022/07/20 07:54:24;;;;;;;6.00;4.00;;;;;;;22.51;61.97;99663.29;108974;1277;139043;-57
2022/07/20 07:56:51;;;;;;;4.40;3.90;;;;;;;22.51;61.87;99662.81;109029;1279;22569;-57
2022/07/20 07:59:18;;;;;;;7.50;4.60;;;;;;;22.50;61.79;99655.11;109079;1278;23632;-57
2022/07/20 08:01:58;;;;;;;7.80;4.40;;;;;;;22.50;61.71;99658.51;109071;1277;137850;-58
2022/07/20 08:04:25;;;;;;;7.00;4.10;;;;;;;22.49;61.72;99660.31;109136;1277;22526;-59
2022/07/20 08:06:52;;;;;;;6.70;4.10;;;;;;;22.49;61.56;99661.17;108937;1277;137020;-59
2022/07/20 08:09:19;;;;;;;7.10;4.70;;;;;;;22.48;61.59;99657.86;109012;1278;23280;-59
2022/07/20 08:11:46;;;;;;;8.10;4.60;;;;;;;22.47;61.31;99657.38;108936;1276;137250;-59
2022/07/20 08:14:13;;;;;;;8.80;4.10;;;;;;;22.51;61.88;99656.58;108860;1278;23270;-60
2022/07/20 08:16:40;;;;;;;4.90;4.10;;;;;;;22.58;61.82;99651.44;108998;1278;22461;-60
2022/07/20 08:19:07;;;;;;;13.60;5.00;;;;;;;22.65;61.80;99646.80;109020;1277;139320;-59
2022/07/20 08:21:33;;;;;;;14.00;4.50;;;;;;;22.73;62.07;99643.10;109082;1277;22568;-59
2022/07/20 08:24:04;;;;;;;7.50;4.90;;;;;;;22.82;61.71;99643.23;108918;1277;139172;-59
2022/07/20 08:26:31;;;;;;;9.50;4.70;;;;;;;22.88;60.82;99641.20;109003;1279;22423;-59
2022/07/20 08:28:58;;;;;;;6.30;4.20;;;;;;;22.95;59.50;99632.78;108965;1279;22546;-59
2022/07/20 08:31:25;;;;;;;7.30;4.40;;;;;;;22.98;59.44;99629.56;108815;1277;138014;-60
2022/07/20 08:33:52;;;;;;;5.20;4.60;;;;;;;23.01;59.91;99629.83;108939;1279;22453;-60
2022/07/20 08:36:19;;;;;;;5.60;3.90;;;;;;;23.04;59.68;99629.91;108816;1279;137783;-60
2022/07/20 08:38:46;;;;;;;9.00;4.90;;;;;;;23.08;59.18;99623.08;109071;1278;23147;-60
2022/07/20 08:41:14;;;;;;;5.90;4.60;;;;;;;23.10;58.57;99616.45;108994;1280;22532;-59
2022/07/20 08:43:41;;;;;;;8.30;4.20;;;;;;;23.09;58.91;99612.30;108804;1280;136895;-60
2022/07/20 08:46:08;;;;;;;5.90;4.50;;;;;;;23.10;59.52;99605.81;108917;1279;23437;-60
2022/07/20 08:48:35;;;;;;;6.00;4.00;;;;;;;23.13;59.52;99594.33;108897;1277;137682;-59
2022/07/20 08:51:02;;;;;;;6.00;4.30;;;;;;;23.17;59.51;99588.21;109015;1277;22282;-59
2022/07/20 08:53:29;;;;;;;4.90;4.00;;;;;;;23.20;59.61;99579.95;108991;1278;22619;-58
2022/07/20 08:55:56;;;;;;;6.90;5.00;;;;;;;23.24;59.57;99577.05;108825;1279;137145;-60
2022/07/20 08:58:22;;;;;;;6.30;4.50;;;;;;;23.30;59.56;99574.32;109012;1278;23383;-59
2022/07/20 09:00:49;;;;;;;5.70;4.70;;;;;;;23.36;59.22;99568.59;108891;1278;137321;-59
2022/07/20 09:03:16;;;;;;;7.10;4.60;;;;;;;23.43;58.93;99567.00;108973;1279;23071;-59
2022/07/20 09:05:43;;;;;;;4.80;4.20;;;;;;;23.48;59.09;99569.61;108904;1277;138340;-60
2022/07/20 09:08:14;;;;;;;4.60;4.00;;;;;;;23.55;58.58;99561.67;109011;1279;22463;-60
2022/07/20 09:10:43;;;;;;;7.10;4.10;;;;;;;23.60;58.03;99553.41;109022;1279;22547;-60
2022/07/20 09:13:17;;;;;;;6.00;4.10;;;;;;;23.67;57.77;99549.77;108872;1279;137021;-60
2022/07/20 09:15:48;;;;;;;6.60;4.10;;;;;;;23.74;57.72;99551.39;109010;1280;22463;-61
2022/07/20 09:18:21;;;;;;;5.90;4.50;;;;;;;23.80;57.30;99535.66;108893;1280;138707;-61
2022/07/20 09:20:49;;;;;;;9.20;4.60;;;;;;;23.83;57.20;99533.39;108696;1281;22517;-61
2022/07/20 09:23:19;;;;;;;6.00;4.20;;;;;;;23.83;57.26;99532.11;108931;1279;22461;-60
2022/07/20 09:26:05;;;;;;;4.40;3.90;;;;;;;23.85;57.16;99541.48;108881;1280;137377;-61
2022/07/20 09:28:39;;;;;;;4.50;4.00;;;;;;;23.87;57.74;99540.14;108802;1281;23612;-61
2022/07/20 09:31:33;;;;;;;5.70;4.50;;;;;;;23.90;57.49;99532.05;108757;1280;137226;-60
2022/07/20 09:34:03;;;;;;;7.90;4.10;;;;;;;23.94;57.18;99526.54;108776;1280;22570;-61
2022/07/20 09:36:31;;;;;;;6.10;4.60;;;;;;;23.97;56.93;99525.10;108788;1281;137180;-61
2022/07/20 09:39:06;;;;;;;5.60;4.20;;;;;;;23.97;56.54;99520.09;108901;1280;22463;-61
2022/07/20 09:41:33;;;;;;;8.80;4.30;;;;;;;23.94;56.20;99511.29;108900;1280;22486;-60
2022/07/20 09:44:01;;;;;;;6.90;4.60;;;;;;;23.92;56.26;99506.30;108816;1280;137155;-60
2022/07/20 09:46:35;;;;;;;4.90;4.00;;;;;;;23.92;56.46;99503.88;108913;1279;23332;-59
2022/07/20 09:49:04;;;;;;;5.70;4.60;;;;;;;23.93;56.35;99500.66;108809;1279;137331;-59
2022/07/20 09:52:00;;;;;;;7.60;4.50;;;;;;;23.93;56.16;99495.04;108963;1279;22630;-60
2022/07/20 09:54:47;;;;;;;6.50;4.20;;;;;;;23.97;56.78;99489.48;108831;1281;137369;-60
2022/07/20 09:57:14;;;;;;;6.50;4.30;;;;;;;23.98;56.88;99485.73;108941;1280;22530;-60
2022/07/20 09:59:46;;;;;;;7.30;4.20;;;;;;;24.01;57.40;99474.59;108617;1281;138541;-60
2022/07/20 10:02:13;;;;;;;6.00;4.00;;;;;;;24.03;56.80;99471.14;108930;1279;22491;-60
2022/07/20 10:04:40;;;;;;;6.30;4.00;;;;;;;24.04;56.24;99460.52;108784;1281;22581;-60
2022/07/20 10:07:07;;;;;;;5.40;4.40;;;;;;;24.05;56.51;99459.79;108821;1280;137454;-60
2022/07/20 10:09:34;;;;;;;7.20;4.80;;;;;;;24.07;56.69;99450.69;108971;1279;24416;-61
2022/07/20 10:12:01;;;;;;;7.70;4.50;;;;;;;24.10;56.65;99447.69;108799;1279;137962;-59
2022/07/20 10:14:28;;;;;;;11.70;4.90;;;;;;;24.16;56.54;99443.81;108813;1281;22497;-60
2022/07/20 10:16:55;;;;;;;6.40;4.40;;;;;;;24.20;56.59;99436.17;108905;1280;22482;-59
2022/07/20 10:19:41;;;;;;;7.40;4.40;;;;;;;24.27;56.79;99431.45;108835;1277;137632;-60
2022/07/20 10:22:11;;;;;;;8.30;3.90;;;;;;;24.36;56.09;99424.83;108980;1277;22495;-60
2022/07/20 10:24:39;;;;;;;4.80;4.30;;;;;;;24.42;56.15;99421.10;108924;1277;137288;-60
2022/07/20 10:27:06;;;;;;;9.60;4.40;;;;;;;24.48;56.03;99415.00;108931;1279;23343;-60
2022/07/20 10:29:34;;;;;;;8.70;4.10;;;;;;;24.50;55.27;99408.93;108993;1280;22446;-60
2022/07/20 10:32:16;;;;;;;13.10;4.10;;;;;;;24.50;55.03;99408.30;108795;1280;137404;-59
2022/07/20 10:34:45;;;;;;;5.50;3.90;;;;;;;24.50;55.00;99404.15;109131;1277;22421;-59
2022/07/20 10:37:34;;;;;;;10.80;4.40;;;;;;;24.48;54.82;99397.56;108815;1280;138196;-60
2022/07/20 10:40:18;;;;;;;6.70;4.30;;;;;;;24.47;54.44;99389.09;108835;1280;23178;-59
2022/07/20 10:42:53;;;;;;;5.90;3.80;;;;;;;24.50;54.13;99380.66;108822;1280;139082;-60
2022/07/20 10:45:20;;;;;;;7.10;4.10;;;;;;;24.52;53.85;99370.86;108915;1280;24064;-61
2022/07/20 10:47:48;;;;;;;9.10;4.60;;;;;;;24.53;53.92;99364.42;108821;1280;137603;-60
2022/07/20 10:50:29;;;;;;;6.10;4.40;;;;;;;24.53;54.06;99359.17;108994;1280;22263;-61
2022/07/20 10:53:23;;;;;;;4.30;3.80;;;;;;;24.54;54.22;99353.33;109108;1277;22474;-61
2022/07/20 10:55:55;;;;;;;14.30;5.10;;;;;;;24.57;54.14;99347.42;108777;1279;137211;-70
2022/07/20 10:58:24;;;;;;;6.60;3.80;;;;;;;24.58;54.16;99342.84;108880;1279;23297;-69
2022/07/20 11:01:02;;;;;;;8.00;4.10;;;;;;;24.59;54.20;99344.30;108940;1277;137972;-70
2022/07/20 11:03:31;;;;;;;7.30;4.60;;;;;;;24.59;54.35;99343.84;108892;1279;23579;-69
2022/07/20 11:06:01;;;;;;;6.30;3.90;;;;;;;24.60;54.35;99341.55;109006;1277;139401;-69
2022/07/20 11:08:28;;;;;;;15.50;4.80;;;;;;;24.62;53.91;99332.29;109007;1277;22381;-69
2022/07/20 11:10:56;;;;;;;8.50;4.00;;;;;;;24.64;53.93;99332.75;109004;1277;22479;-69
2022/07/20 11:13:23;;;;;;;5.20;3.70;;;;;;;24.65;53.81;99330.50;108866;1277;137303;-69
2022/07/20 11:15:55;;;;;;;6.70;4.10;;;;;;;24.65;53.65;99329.29;109134;1277;22782;-69
2022/07/20 11:18:29;;;;;;;6.70;3.90;;;;;;;24.65;53.48;99322.69;108967;1277;137928;-69
2022/07/20 11:21:00;;;;;;;5.90;4.40;;;;;;;24.64;52.98;99315.34;109098;1278;22476;-68
2022/07/20 11:23:44;;;;;;;5.90;4.20;;;;;;;24.63;53.43;99309.42;109230;1277;22510;-69
2022/07/20 11:26:12;;;;;;;7.50;4.40;;;;;;;24.65;53.89;99298.71;109231;1277;22422;-57
2022/07/20 11:28:50;;;;;;;6.60;3.60;;;;;;;24.69;53.63;99298.00;109258;1277;22418;-56
2022/07/20 11:31:20;;;;;;;6.00;4.30;;;;;;;24.72;53.14;99288.85;108997;1277;137667;-57
2022/07/20 11:33:49;;;;;;;7.50;4.20;;;;;;;24.75;52.99;99281.77;108970;1279;22522;-55
2022/07/20 11:36:19;;;;;;;6.60;4.30;;;;;;;24.75;53.13;99273.02;108801;1279;140762;-55
2022/07/20 11:38:50;;;;;;;7.60;4.70;;;;;;;24.78;52.86;99261.08;108982;1279;22446;-56
2022/07/20 11:41:41;;;;;;;8.40;4.00;;;;;;;24.80;53.20;99263.98;108908;1279;22425;-55
2022/07/20 11:44:14;;;;;;;19.50;5.30;;;;;;;24.86;53.57;99261.11;108913;1278;22541;-55
2022/07/20 11:46:42;;;;;;;13.80;4.40;;;;;;;24.92;52.44;99257.12;109007;1277;22472;-56
2022/07/20 11:49:12;;;;;;;9.10;4.30;;;;;;;24.93;52.47;99256.30;108852;1279;138177;-56
2022/07/20 11:51:57;;;;;;;8.80;4.40;;;;;;;24.98;52.54;99254.30;109041;1279;23159;-56
2022/07/20 11:54:27;;;;;;;9.20;4.10;;;;;;;25.07;52.39;99255.53;108903;1279;138663;-55
2022/07/20 11:56:55;;;;;;;19.90;5.20;;;;;;;25.13;51.88;99256.56;108975;1279;22353;-55
2022/07/20 11:59:22;;;;;;;10.30;4.50;;;;;;;25.16;51.40;99248.28;108934;1279;22432;-55
2022/07/20 12:01:50;;;;;;;7.50;4.40;;;;;;;25.18;51.49;99246.18;108907;1279;138510;-55
2022/07/20 12:04:19;;;;;;;6.80;5.30;;;;;;;25.22;51.60;99243.33;109171;1277;22485;-55
2022/07/20 12:06:46;;;;;;;7.20;4.30;;;;;;;25.24;51.17;99231.66;108958;1277;137540;-60
2022/07/20 12:09:14;;;;;;;7.90;4.20;;;;;;;25.24;51.03;99225.77;108980;1277;23306;-60
2022/07/20 12:12:04;;;;;;;7.70;4.30;;;;;;;25.24;51.19;99225.20;109006;1277;138180;-60
2022/07/20 12:14:37;;;;;;;8.30;4.40;;;;;;;25.23;51.37;99221.21;108974;1279;23346;-59
2022/07/20 12:17:24;;;;;;;8.30;4.50;;;;;;;25.22;50.84;99212.50;108946;1279;22457;-60
2022/07/20 12:19:54;;;;;;;6.00;4.60;;;;;;;25.23;51.01;99203.60;108853;1279;139395;-59
2022/07/20 12:22:23;;;;;;;6.60;4.60;;;;;;;25.24;50.76;99201.95;108967;1278;22574;-60
2022/07/20 12:24:57;;;;;;;4.40;4.00;;;;;;;25.26;50.42;99198.95;108927;1278;137906;-58
2022/07/20 12:27:28;;;;;;;5.90;4.50;;;;;;;25.28;50.42;99189.27;108975;1279;22475;-58
2022/07/20 12:29:55;;;;;;;9.60;4.80;;;;;;;25.29;50.54;99180.38;108903;1279;136543;-58
2022/07/20 12:32:33;;;;;;;7.10;4.70;;;;;;;25.35;50.89;99174.54;108868;1279;22488;-58
2022/07/20 12:35:02;;;;;;;11.30;4.40;;;;;;;25.42;49.88;99174.61;108945;1278;22478;-58
2022/07/20 12:37:52;;;;;;;7.20;5.20;;;;;;;25.53;49.49;99168.39;104703;1278;137948;-58
2022/07/20 12:40:41;;;;;;;7.20;4.20;;;;;;;25.63;49.94;99169.34;104679;1278;22521;-58
2022/07/20 12:43:29;;;;;;;6.90;4.90;;;;;;;25.67;49.73;99164.40;108852;1277;137952;-58
2022/07/20 12:45:59;;;;;;;9.70;4.30;;;;;;;25.73;49.69;99164.21;108966;1278;23385;-59
2022/07/20 12:48:26;;;;;;;14.90;4.30;;;;;;;25.76;49.51;99158.84;108842;1277;139897;-58
2022/07/20 12:50:53;;;;;;;9.90;5.00;;;;;;;25.75;49.36;99150.86;109021;1277;22636;-63
2022/07/20 12:53:20;;;;;;;9.40;4.10;;;;;;;25.77;49.28;99140.78;108990;1277;22468;-59
2022/07/20 12:55:47;;;;;;;6.20;4.40;;;;;;;25.81;48.44;99138.06;108769;1278;137333;-59
2022/07/20 12:58:14;;;;;;;5.60;4.40;;;;;;;25.82;48.28;99131.39;109039;1277;22470;-59
2022/07/20 13:00:41;;;;;;;12.40;4.60;;;;;;;25.81;48.19;99125.63;108987;1277;137535;-59
2022/07/20 13:03:08;;;;;;;8.00;4.60;;;;;;;25.76;48.54;99118.98;109038;1278;22282;-59
2022/07/20 13:05:34;;;;;;;7.20;4.00;;;;;;;25.71;47.71;99115.05;109173;1277;22518;-59
2022/07/20 13:08:02;;;;;;;11.10;4.60;;;;;;;25.67;47.70;99106.48;108783;1277;138090;-59
2022/07/20 13:10:29;;;;;;;10.40;4.60;;;;;;;25.69;47.90;99106.95;108904;1278;23116;-59
2022/07/20 13:12:55;;;;;;;8.20;4.30;;;;;;;25.76;48.11;99096.81;109001;1277;137718;-59
2022/07/20 13:15:22;;;;;;;12.80;4.30;;;;;;;25.84;47.78;99088.44;108974;1277;22498;-60
2022/07/20 13:18:09;;;;;;;10.00;4.20;;;;;;;25.97;47.16;99085.98;108935;1278;139021;-58
2022/07/20 13:20:36;;;;;;;4.80;4.20;;;;;;;26.08;46.43;99081.45;109059;1277;22446;-59
2022/07/20 13:23:06;;;;;;;6.50;4.30;;;;;;;26.14;46.50;99081.80;108912;1277;23253;-59
2022/07/20 13:25:33;;;;;;;5.40;4.20;;;;;;;26.22;46.00;99084.27;108976;1277;137692;-59
2022/07/20 13:27:59;;;;;;;6.30;4.10;;;;;;;26.26;46.00;99076.26;109119;1277;22435;-59
2022/07/20 13:30:30;;;;;;;6.00;4.30;;;;;;;26.25;46.02;99076.19;108047;1277;139372;-59
2022/07/20 13:32:57;;;;;;;8.40;4.20;;;;;;;26.22;45.88;99078.11;104650;1278;24252;-59
2022/07/20 13:35:24;;;;;;;8.70;5.00;;;;;;;26.17;45.78;99080.74;104607;1278;22780;-58
2022/07/20 13:37:51;;;;;;;6.30;4.20;;;;;;;26.10;45.76;99085.81;104474;1278;138306;-59
2022/07/20 13:40:18;;;;;;;6.80;3.80;;;;;;;26.02;45.26;99083.83;104723;1277;22593;-59
2022/07/20 13:42:45;;;;;;;8.80;4.30;;;;;;;25.94;45.44;99079.30;104617;1277;137536;-58
2022/07/20 13:45:12;;;;;;;4.50;3.80;;;;;;;25.88;45.70;99084.11;104825;1277;25513;-58
2022/07/20 13:47:39;;;;;;;6.50;4.30;;;;;;;25.80;46.53;99084.94;104560;1278;138682;-60
2022/07/20 13:50:08;;;;;;;8.50;4.30;;;;;;;25.64;48.10;99079.84;108992;1277;23394;-59
2022/07/20 13:52:35;;;;;;;6.60;3.90;;;;;;;25.36;48.93;99080.05;109005;1277;22477;-58
2022/07/20 13:55:02;;;;;;;5.70;4.20;;;;;;;25.09;49.72;99081.70;108927;1277;138608;-58
2022/07/20 13:57:29;;;;;;;7.20;4.90;;;;;;;24.87;50.40;99082.95;107163;1277;25103;-58
2022/07/20 13:59:56;;;;;;;5.30;4.10;;;;;;;24.70;51.21;99074.73;104625;1278;138078;-58
2022/07/20 14:02:23;;;;;;;6.40;4.40;;;;;;;24.54;51.55;99076.36;104677;1279;22860;-57
2022/07/20 14:04:50;;;;;;;7.40;4.20;;;;;;;24.43;51.52;99083.16;104752;1278;23041;-58
2022/07/20 14:07:17;;;;;;;7.90;4.80;;;;;;;24.33;51.68;99079.74;104661;1277;137519;-58
2022/07/20 14:09:44;;;;;;;7.70;4.90;;;;;;;24.22;52.49;99086.46;104731;1278;22560;-58
2022/07/20 14:12:11;;;;;;;6.10;4.70;;;;;;;24.11;53.54;99088.23;104640;1277;138107;-58
2022/07/20 14:14:38;;;;;;;6.80;4.50;;;;;;;23.98;54.75;99087.33;104844;1277;26697;-58
2022/07/20 14:17:05;;;;;;;7.10;4.60;;;;;;;23.82;55.69;99090.08;104973;1277;22635;-57
2022/07/20 14:19:40;;;;;;;8.20;4.30;;;;;;;23.63;56.53;99086.52;104778;1277;137262;-58
2022/07/20 14:22:07;;;;;;;5.70;4.50;;;;;;;23.45;57.32;99087.21;104912;1279;22754;-60
2022/07/20 14:24:34;;;;;;;5.50;4.50;;;;;;;23.30;58.26;99087.11;104829;1278;137868;-58
2022/07/20 14:27:01;;;;;;;5.20;4.30;;;;;;;23.18;58.53;99089.11;105005;1279;24493;-61
2022/07/20 14:29:28;;;;;;;7.20;4.60;;;;;;;23.07;58.81;99090.28;104845;1278;22657;-59
2022/07/20 14:31:55;;;;;;;5.90;4.30;;;;;;;22.96;58.74;99102.66;104862;1277;137363;-58
2022/07/20 14:34:22;;;;;;;8.00;4.60;;;;;;;22.88;59.34;99124.42;104832;1277;22588;-59
2022/07/20 14:36:49;;;;;;;6.50;4.60;;;;;;;22.84;59.67;99129.45;104662;1277;139684;-59
2022/07/20 14:39:16;;;;;;;6.60;4.80;;;;;;;22.81;59.89;99123.86;104838;1277;25428;-58
2022/07/20 14:41:44;;;;;;;10.00;4.30;;;;;;;22.79;60.15;99122.08;109080;1276;138045;-60
2022/07/20 14:44:12;;;;;;;9.90;4.90;;;;;;;22.80;60.27;99116.99;109052;1277;23410;-59
2022/07/20 14:46:39;;;;;;;15.60;4.40;;;;;;;22.82;60.38;99115.09;109221;1277;22913;-59
2022/07/20 14:49:06;;;;;;;7.20;4.80;;;;;;;22.89;60.42;99105.23;109061;1277;137691;-59
2022/07/20 14:51:33;;;;;;;6.20;4.40;;;;;;;22.99;60.31;99087.90;109028;1276;22627;-59
2022/07/20 14:54:00;;;;;;;12.20;5.10;;;;;;;23.14;59.82;99090.26;108933;1276;137761;-59
2022/07/20 14:56:27;;;;;;;9.30;5.50;;;;;;;23.28;58.35;99096.95;108992;1277;22529;-59
2022/07/20 14:58:54;;;;;;;8.60;4.90;;;;;;;23.42;57.35;99090.76;109028;1278;22592;-59
2022/07/20 15:01:21;;;;;;;11.90;4.30;;;;;;;23.54;57.57;99089.79;109093;1277;137641;-59